Pagina principale
METAR-TAF:

METAR-TAF

Aeroporti :

Aeroporto di Karlsruhe-Baden-Baden

Baden-Baden, Germania

latitudine: 48-46-43N, longitudine: 008-04-47E, altezza: 124 m

Osservazione

Il bollettino è stato emesso 33 minuti fa, alle 00:50 UTC
Vento 13 kt da nord/nord-est
Temperature 3°C
Umidità 38%
Pressione 1035 hPa
Visibilità 10 km o più

METAR: EDSB 240050Z AUTO 02013KT 9999 // NCD 03/M10 Q1035

Ora: 02:23 (01:23 UTC)

Previsione

Il bollettino è stato emesso 8 ore e 23 minuti fa, alle 17:00 UTC
Previsione valida dal 23 alle 18 UTC al 24 alle 18 UTC
Vento 12 kt da nord/nord-est
Visibilità 10 km o più
nessuna nube inferiore a 1500 m e nessun cumulonembo
Evoluzione graduale
dal 23 alle 18 UTC al 23 alle 20 UTC
Vento 7 kt da nord/nord-est

TAF: EDSB 231700Z 2318/2418 03012KT CAVOK BECMG 2318/2320 03007KT

Osservazioni e previsioni meteorologiche di più di 4000 aeroporti (messaggi METAR e TAF).

Le stazioni disponibili sono rappresentate dai dischi gialli e rossi sulla carta.

Puntare il mouse per vedere il nome della stazione.

Clicca sopra per visualizzare le osservazioni e previsioni meteorologiche.

Per cambiare la mappa : fare clic sui pulsanti verdi con una croce nera per ingrandire, il pulsante verde con un trattino per diminuire, o sulla freccia verde per le mappe adiacenti.


METAR-TAF: